sensor_id;sensor_type;location;lat;lon;timestamp;P1;durP1;ratioP1;P2;durP2;ratioP2
60416;SDS011;46263;44.726;10.396;2023-05-10T00:01:03;10.98;;;6.70;;
60416;SDS011;46263;44.726;10.396;2023-05-10T00:03:29;10.40;;;6.57;;
60416;SDS011;46263;44.726;10.396;2023-05-10T00:05:54;8.93;;;6.80;;
60416;SDS011;46263;44.726;10.396;2023-05-10T00:08:20;10.15;;;6.80;;
60416;SDS011;46263;44.726;10.396;2023-05-10T00:10:45;13.15;;;7.28;;
60416;SDS011;46263;44.726;10.396;2023-05-10T00:13:10;8.32;;;5.97;;
60416;SDS011;46263;44.726;10.396;2023-05-10T00:15:36;8.25;;;6.45;;
60416;SDS011;46263;44.726;10.396;2023-05-10T00:18:01;8.45;;;6.43;;
60416;SDS011;46263;44.726;10.396;2023-05-10T00:20:27;8.45;;;6.50;;
60416;SDS011;46263;44.726;10.396;2023-05-10T00:22:52;9.35;;;7.28;;
60416;SDS011;46263;44.726;10.396;2023-05-10T00:25:18;11.35;;;7.28;;
60416;SDS011;46263;44.726;10.396;2023-05-10T00:27:43;9.40;;;6.05;;
60416;SDS011;46263;44.726;10.396;2023-05-10T00:30:09;9.18;;;6.85;;
60416;SDS011;46263;44.726;10.396;2023-05-10T00:32:34;9.60;;;6.82;;
60416;SDS011;46263;44.726;10.396;2023-05-10T00:35:00;10.68;;;7.05;;
60416;SDS011;46263;44.726;10.396;2023-05-10T00:37:25;8.95;;;7.15;;
60416;SDS011;46263;44.726;10.396;2023-05-10T00:39:51;8.80;;;6.72;;
60416;SDS011;46263;44.726;10.396;2023-05-10T00:42:16;9.38;;;5.95;;
60416;SDS011;46263;44.726;10.396;2023-05-10T00:44:42;8.68;;;6.15;;
60416;SDS011;46263;44.726;10.396;2023-05-10T00:47:07;6.95;;;5.88;;
60416;SDS011;46263;44.726;10.396;2023-05-10T00:49:33;10.07;;;6.97;;
60416;SDS011;46263;44.726;10.396;2023-05-10T00:52:00;16.65;;;7.18;;
60416;SDS011;46263;44.726;10.396;2023-05-10T00:54:27;12.88;;;7.10;;
60416;SDS011;46263;44.726;10.396;2023-05-10T00:56:52;8.45;;;6.63;;
60416;SDS011;46263;44.726;10.396;2023-05-10T00:59:18;8.57;;;6.45;;
60416;SDS011;46263;44.726;10.396;2023-05-10T01:01:44;8.18;;;6.50;;
60416;SDS011;46263;44.726;10.396;2023-05-10T01:04:11;7.78;;;6.32;;
60416;SDS011;46263;44.726;10.396;2023-05-10T01:06:38;9.68;;;6.30;;
60416;SDS011;46263;44.726;10.396;2023-05-10T01:09:05;8.90;;;6.05;;
60416;SDS011;46263;44.726;10.396;2023-05-10T01:11:31;6.90;;;5.85;;
60416;SDS011;46263;44.726;10.396;2023-05-10T01:13:58;9.07;;;6.32;;
60416;SDS011;46263;44.726;10.396;2023-05-10T01:16:24;10.00;;;5.97;;
60416;SDS011;46263;44.726;10.396;2023-05-10T01:18:51;7.82;;;6.07;;
60416;SDS011;46263;44.726;10.396;2023-05-10T01:40:26;10.48;;;7.85;;
60416;SDS011;46263;44.726;10.396;2023-05-10T01:43:02;11.82;;;8.00;;
60416;SDS011;46263;44.726;10.396;2023-05-10T01:45:41;10.93;;;7.65;;
60416;SDS011;46263;44.726;10.396;2023-05-10T01:48:15;11.23;;;7.90;;
60416;SDS011;46263;44.726;10.396;2023-05-10T01:50:43;9.15;;;7.72;;
60416;SDS011;46263;44.726;10.396;2023-05-10T01:53:11;10.85;;;8.05;;
60416;SDS011;46263;44.726;10.396;2023-05-10T01:55:48;9.65;;;7.70;;
60416;SDS011;46263;44.726;10.396;2023-05-10T01:58:20;9.02;;;7.63;;
60416;SDS011;46263;44.726;10.396;2023-05-10T02:00:50;9.52;;;7.18;;
60416;SDS011;46263;44.726;10.396;2023-05-10T02:03:17;11.95;;;7.95;;
60416;SDS011;46263;44.726;10.396;2023-05-10T02:05:48;10.98;;;8.10;;
60416;SDS011;46263;44.726;10.396;2023-05-10T02:08:17;11.73;;;8.32;;
60416;SDS011;46263;44.726;10.396;2023-05-10T02:10:45;9.85;;;7.32;;
60416;SDS011;46263;44.726;10.396;2023-05-10T02:13:12;9.15;;;7.30;;
60416;SDS011;46263;44.726;10.396;2023-05-10T02:15:39;8.95;;;7.43;;
60416;SDS011;46263;44.726;10.396;2023-05-10T02:18:06;9.18;;;7.70;;
60416;SDS011;46263;44.726;10.396;2023-05-10T02:20:34;9.85;;;7.20;;
60416;SDS011;46263;44.726;10.396;2023-05-10T02:23:00;10.45;;;7.18;;
60416;SDS011;46263;44.726;10.396;2023-05-10T02:25:28;9.00;;;7.30;;
60416;SDS011;46263;44.726;10.396;2023-05-10T02:27:55;9.18;;;6.57;;
60416;SDS011;46263;44.726;10.396;2023-05-10T02:30:22;9.63;;;7.00;;
60416;SDS011;46263;44.726;10.396;2023-05-10T02:32:49;8.95;;;6.72;;
60416;SDS011;46263;44.726;10.396;2023-05-10T02:35:16;10.80;;;7.18;;
60416;SDS011;46263;44.726;10.396;2023-05-10T02:37:42;8.60;;;6.43;;
60416;SDS011;46263;44.726;10.396;2023-05-10T02:40:09;8.23;;;6.68;;
60416;SDS011;46263;44.726;10.396;2023-05-10T02:42:36;7.68;;;6.65;;
60416;SDS011;46263;44.726;10.396;2023-05-10T02:45:13;9.75;;;6.32;;
60416;SDS011;46263;44.726;10.396;2023-05-10T02:47:42;8.18;;;6.60;;
60416;SDS011;46263;44.726;10.396;2023-05-10T02:50:08;8.45;;;6.20;;
60416;SDS011;46263;44.726;10.396;2023-05-10T02:52:46;8.50;;;5.55;;
60416;SDS011;46263;44.726;10.396;2023-05-10T02:55:15;6.80;;;5.43;;
60416;SDS011;46263;44.726;10.396;2023-05-10T02:57:55;6.85;;;5.63;;
60416;SDS011;46263;44.726;10.396;2023-05-10T03:00:24;7.28;;;5.80;;
60416;SDS011;46263;44.726;10.396;2023-05-10T03:02:50;9.20;;;5.75;;
60416;SDS011;46263;44.726;10.396;2023-05-10T03:05:16;7.55;;;5.32;;
60416;SDS011;46263;44.726;10.396;2023-05-10T03:07:42;8.13;;;5.65;;
60416;SDS011;46263;44.726;10.396;2023-05-10T03:10:08;6.75;;;5.03;;
60416;SDS011;46263;44.726;10.396;2023-05-10T03:15:30;8.15;;;5.18;;
60416;SDS011;46263;44.726;10.396;2023-05-10T03:18:12;5.80;;;5.20;;
60416;SDS011;46263;44.726;10.396;2023-05-10T03:20:45;8.40;;;5.00;;
60416;SDS011;46263;44.726;10.396;2023-05-10T03:23:20;6.82;;;5.13;;
60416;SDS011;46263;44.726;10.396;2023-05-10T03:25:48;6.57;;;5.63;;
60416;SDS011;46263;44.726;10.396;2023-05-10T03:28:15;6.25;;;4.90;;
60416;SDS011;46263;44.726;10.396;2023-05-10T03:30:43;6.20;;;5.10;;
60416;SDS011;46263;44.726;10.396;2023-05-10T03:33:10;6.82;;;5.18;;
60416;SDS011;46263;44.726;10.396;2023-05-10T03:35:35;7.50;;;5.30;;
60416;SDS011;46263;44.726;10.396;2023-05-10T03:38:01;8.55;;;5.82;;
60416;SDS011;46263;44.726;10.396;2023-05-10T03:40:27;8.98;;;5.43;;
60416;SDS011;46263;44.726;10.396;2023-05-10T03:43:00;7.88;;;4.95;;
60416;SDS011;46263;44.726;10.396;2023-05-10T03:45:25;6.20;;;5.45;;
60416;SDS011;46263;44.726;10.396;2023-05-10T03:47:51;6.47;;;5.22;;
60416;SDS011;46263;44.726;10.396;2023-05-10T03:50:16;6.18;;;4.95;;
60416;SDS011;46263;44.726;10.396;2023-05-10T03:52:43;5.20;;;4.70;;
60416;SDS011;46263;44.726;10.396;2023-05-10T03:55:09;6.20;;;4.68;;
60416;SDS011;46263;44.726;10.396;2023-05-10T03:57:34;6.45;;;4.95;;
60416;SDS011;46263;44.726;10.396;2023-05-10T04:00:00;6.88;;;5.05;;
60416;SDS011;46263;44.726;10.396;2023-05-10T04:02:26;5.00;;;4.38;;
60416;SDS011;46263;44.726;10.396;2023-05-10T04:04:51;8.75;;;5.50;;
60416;SDS011;46263;44.726;10.396;2023-05-10T04:07:17;9.93;;;5.30;;
60416;SDS011;46263;44.726;10.396;2023-05-10T04:09:43;7.80;;;4.70;;
60416;SDS011;46263;44.726;10.396;2023-05-10T04:12:08;5.13;;;4.63;;
60416;SDS011;46263;44.726;10.396;2023-05-10T04:14:34;5.60;;;4.88;;
60416;SDS011;46263;44.726;10.396;2023-05-10T04:17:00;5.25;;;4.65;;
60416;SDS011;46263;44.726;10.396;2023-05-10T04:19:28;7.45;;;4.47;;
60416;SDS011;46263;44.726;10.396;2023-05-10T04:21:57;5.57;;;4.75;;
60416;SDS011;46263;44.726;10.396;2023-05-10T04:24:23;5.85;;;5.07;;
60416;SDS011;46263;44.726;10.396;2023-05-10T04:26:49;6.43;;;4.40;;
60416;SDS011;46263;44.726;10.396;2023-05-10T04:29:14;6.38;;;4.72;;
60416;SDS011;46263;44.726;10.396;2023-05-10T04:31:40;5.30;;;4.70;;
60416;SDS011;46263;44.726;10.396;2023-05-10T04:34:06;4.68;;;4.20;;
60416;SDS011;46263;44.726;10.396;2023-05-10T04:36:31;5.78;;;4.38;;
60416;SDS011;46263;44.726;10.396;2023-05-10T04:38:58;7.47;;;4.95;;
60416;SDS011;46263;44.726;10.396;2023-05-10T04:41:24;5.05;;;4.55;;
60416;SDS011;46263;44.726;10.396;2023-05-10T04:43:50;5.13;;;4.43;;
60416;SDS011;46263;44.726;10.396;2023-05-10T04:46:16;5.88;;;4.65;;
60416;SDS011;46263;44.726;10.396;2023-05-10T04:48:41;7.13;;;5.13;;
60416;SDS011;46263;44.726;10.396;2023-05-10T04:51:07;5.18;;;4.68;;
60416;SDS011;46263;44.726;10.396;2023-05-10T04:53:32;6.85;;;4.65;;
60416;SDS011;46263;44.726;10.396;2023-05-10T04:55:58;5.25;;;4.72;;
60416;SDS011;46263;44.726;10.396;2023-05-10T04:58:23;6.68;;;4.75;;
60416;SDS011;46263;44.726;10.396;2023-05-10T05:00:49;7.32;;;4.80;;
60416;SDS011;46263;44.726;10.396;2023-05-10T05:03:14;4.88;;;4.40;;
60416;SDS011;46263;44.726;10.396;2023-05-10T05:05:40;5.75;;;4.78;;
60416;SDS011;46263;44.726;10.396;2023-05-10T05:08:05;5.82;;;5.22;;
60416;SDS011;46263;44.726;10.396;2023-05-10T05:10:31;5.43;;;4.93;;
60416;SDS011;46263;44.726;10.396;2023-05-10T05:12:56;6.32;;;5.43;;
60416;SDS011;46263;44.726;10.396;2023-05-10T05:15:22;5.63;;;5.03;;
60416;SDS011;46263;44.726;10.396;2023-05-10T05:17:47;5.63;;;4.82;;
60416;SDS011;46263;44.726;10.396;2023-05-10T05:20:13;6.22;;;4.88;;
60416;SDS011;46263;44.726;10.396;2023-05-10T05:22:38;7.55;;;4.90;;
60416;SDS011;46263;44.726;10.396;2023-05-10T05:25:04;8.38;;;5.35;;
60416;SDS011;46263;44.726;10.396;2023-05-10T05:27:31;6.68;;;5.75;;
60416;SDS011;46263;44.726;10.396;2023-05-10T05:29:57;6.03;;;4.93;;
60416;SDS011;46263;44.726;10.396;2023-05-10T05:32:23;6.57;;;4.90;;
60416;SDS011;46263;44.726;10.396;2023-05-10T05:34:49;6.25;;;5.55;;
60416;SDS011;46263;44.726;10.396;2023-05-10T05:37:16;6.15;;;5.55;;
60416;SDS011;46263;44.726;10.396;2023-05-10T05:39:45;7.20;;;4.95;;
60416;SDS011;46263;44.726;10.396;2023-05-10T05:42:12;7.82;;;5.50;;
60416;SDS011;46263;44.726;10.396;2023-05-10T05:44:39;7.28;;;5.55;;
60416;SDS011;46263;44.726;10.396;2023-05-10T05:47:04;5.57;;;5.03;;
60416;SDS011;46263;44.726;10.396;2023-05-10T05:49:30;5.78;;;5.05;;
60416;SDS011;46263;44.726;10.396;2023-05-10T05:51:59;5.93;;;4.75;;
60416;SDS011;46263;44.726;10.396;2023-05-10T05:54:26;4.70;;;4.30;;
60416;SDS011;46263;44.726;10.396;2023-05-10T05:56:58;5.03;;;3.88;;
60416;SDS011;46263;44.726;10.396;2023-05-10T05:59:25;5.95;;;4.43;;
60416;SDS011;46263;44.726;10.396;2023-05-10T06:01:50;6.03;;;4.32;;
60416;SDS011;46263;44.726;10.396;2023-05-10T06:04:16;4.22;;;3.83;;
60416;SDS011;46263;44.726;10.396;2023-05-10T06:06:42;4.72;;;3.45;;
60416;SDS011;46263;44.726;10.396;2023-05-10T06:09:08;4.20;;;3.80;;
60416;SDS011;46263;44.726;10.396;2023-05-10T06:11:33;5.45;;;4.57;;
60416;SDS011;46263;44.726;10.396;2023-05-10T06:13:59;4.72;;;3.85;;
60416;SDS011;46263;44.726;10.396;2023-05-10T06:16:25;4.65;;;4.10;;
60416;SDS011;46263;44.726;10.396;2023-05-10T06:18:51;4.30;;;3.90;;
60416;SDS011;46263;44.726;10.396;2023-05-10T06:21:17;4.78;;;4.05;;
60416;SDS011;46263;44.726;10.396;2023-05-10T06:23:42;5.28;;;3.80;;
60416;SDS011;46263;44.726;10.396;2023-05-10T06:26:09;3.80;;;3.42;;
60416;SDS011;46263;44.726;10.396;2023-05-10T06:28:34;3.78;;;3.45;;
60416;SDS011;46263;44.726;10.396;2023-05-10T06:31:00;4.72;;;3.78;;
60416;SDS011;46263;44.726;10.396;2023-05-10T06:33:25;4.63;;;3.85;;
60416;SDS011;46263;44.726;10.396;2023-05-10T06:35:51;4.20;;;3.55;;
60416;SDS011;46263;44.726;10.396;2023-05-10T06:38:16;4.97;;;4.40;;
60416;SDS011;46263;44.726;10.396;2023-05-10T06:40:42;4.65;;;4.00;;
60416;SDS011;46263;44.726;10.396;2023-05-10T06:43:08;5.60;;;4.55;;
60416;SDS011;46263;44.726;10.396;2023-05-10T06:45:34;5.45;;;4.47;;
60416;SDS011;46263;44.726;10.396;2023-05-10T06:47:59;5.38;;;4.18;;
60416;SDS011;46263;44.726;10.396;2023-05-10T06:50:25;4.55;;;4.15;;
60416;SDS011;46263;44.726;10.396;2023-05-10T06:52:50;5.35;;;4.25;;
60416;SDS011;46263;44.726;10.396;2023-05-10T06:55:16;4.25;;;3.85;;
60416;SDS011;46263;44.726;10.396;2023-05-10T06:57:42;3.78;;;3.42;;
60416;SDS011;46263;44.726;10.396;2023-05-10T07:00:07;5.13;;;3.70;;
60416;SDS011;46263;44.726;10.396;2023-05-10T07:02:34;3.92;;;3.35;;
60416;SDS011;46263;44.726;10.396;2023-05-10T07:05:00;3.90;;;3.50;;
60416;SDS011;46263;44.726;10.396;2023-05-10T07:07:26;4.18;;;3.78;;
60416;SDS011;46263;44.726;10.396;2023-05-10T07:09:51;5.00;;;3.90;;
60416;SDS011;46263;44.726;10.396;2023-05-10T07:12:17;4.30;;;3.60;;
60416;SDS011;46263;44.726;10.396;2023-05-10T07:14:42;4.10;;;3.70;;
60416;SDS011;46263;44.726;10.396;2023-05-10T07:17:08;6.13;;;3.92;;
60416;SDS011;46263;44.726;10.396;2023-05-10T07:19:34;4.65;;;3.97;;
60416;SDS011;46263;44.726;10.396;2023-05-10T07:22:00;3.95;;;3.55;;
60416;SDS011;46263;44.726;10.396;2023-05-10T07:24:26;5.40;;;4.53;;
60416;SDS011;46263;44.726;10.396;2023-05-10T07:26:52;4.85;;;4.32;;
60416;SDS011;46263;44.726;10.396;2023-05-10T07:29:17;4.28;;;3.72;;
60416;SDS011;46263;44.726;10.396;2023-05-10T07:31:43;4.10;;;3.70;;
60416;SDS011;46263;44.726;10.396;2023-05-10T07:34:08;4.22;;;3.33;;
60416;SDS011;46263;44.726;10.396;2023-05-10T07:36:34;5.18;;;4.00;;
60416;SDS011;46263;44.726;10.396;2023-05-10T07:39:00;4.85;;;4.35;;
60416;SDS011;46263;44.726;10.396;2023-05-10T07:41:25;5.10;;;4.07;;
60416;SDS011;46263;44.726;10.396;2023-05-10T07:43:51;3.95;;;3.60;;
60416;SDS011;46263;44.726;10.396;2023-05-10T07:46:17;5.63;;;3.83;;
60416;SDS011;46263;44.726;10.396;2023-05-10T07:48:44;5.63;;;3.67;;
60416;SDS011;46263;44.726;10.396;2023-05-10T07:51:11;5.85;;;3.72;;
60416;SDS011;46263;44.726;10.396;2023-05-10T07:53:37;5.40;;;4.35;;
60416;SDS011;46263;44.726;10.396;2023-05-10T07:58:47;4.82;;;3.78;;
60416;SDS011;46263;44.726;10.396;2023-05-10T08:01:12;5.85;;;4.10;;
60416;SDS011;46263;44.726;10.396;2023-05-10T08:03:38;5.43;;;4.63;;
60416;SDS011;46263;44.726;10.396;2023-05-10T08:06:03;5.78;;;4.45;;
60416;SDS011;46263;44.726;10.396;2023-05-10T08:08:29;5.53;;;4.00;;
60416;SDS011;46263;44.726;10.396;2023-05-10T08:10:54;5.80;;;4.03;;
60416;SDS011;46263;44.726;10.396;2023-05-10T08:13:20;5.00;;;3.92;;
60416;SDS011;46263;44.726;10.396;2023-05-10T08:15:46;4.93;;;4.10;;
60416;SDS011;46263;44.726;10.396;2023-05-10T08:18:12;5.90;;;4.30;;
60416;SDS011;46263;44.726;10.396;2023-05-10T08:20:38;4.95;;;4.10;;
60416;SDS011;46263;44.726;10.396;2023-05-10T08:23:03;5.15;;;4.65;;
60416;SDS011;46263;44.726;10.396;2023-05-10T08:25:28;7.05;;;4.32;;
60416;SDS011;46263;44.726;10.396;2023-05-10T08:27:54;5.13;;;4.63;;
60416;SDS011;46263;44.726;10.396;2023-05-10T08:30:19;6.80;;;4.57;;
60416;SDS011;46263;44.726;10.396;2023-05-10T08:32:45;4.97;;;4.13;;
60416;SDS011;46263;44.726;10.396;2023-05-10T08:35:10;6.13;;;4.45;;
60416;SDS011;46263;44.726;10.396;2023-05-10T08:37:36;5.45;;;4.18;;
60416;SDS011;46263;44.726;10.396;2023-05-10T08:40:01;7.40;;;4.63;;
60416;SDS011;46263;44.726;10.396;2023-05-10T08:42:28;4.40;;;3.83;;
60416;SDS011;46263;44.726;10.396;2023-05-10T08:44:56;5.35;;;4.30;;
60416;SDS011;46263;44.726;10.396;2023-05-10T08:47:22;5.32;;;4.15;;
60416;SDS011;46263;44.726;10.396;2023-05-10T08:49:48;4.65;;;4.18;;
60416;SDS011;46263;44.726;10.396;2023-05-10T08:52:16;5.00;;;3.83;;
60416;SDS011;46263;44.726;10.396;2023-05-10T08:54:42;5.15;;;3.92;;
60416;SDS011;46263;44.726;10.396;2023-05-10T08:57:08;6.65;;;4.40;;
60416;SDS011;46263;44.726;10.396;2023-05-10T08:59:35;5.97;;;4.13;;
60416;SDS011;46263;44.726;10.396;2023-05-10T09:02:03;5.47;;;3.97;;
60416;SDS011;46263;44.726;10.396;2023-05-10T09:04:30;5.20;;;4.25;;
60416;SDS011;46263;44.726;10.396;2023-05-10T09:06:56;5.90;;;5.13;;
60416;SDS011;46263;44.726;10.396;2023-05-10T09:09:22;5.88;;;4.30;;
60416;SDS011;46263;44.726;10.396;2023-05-10T09:11:50;5.20;;;4.05;;
60416;SDS011;46263;44.726;10.396;2023-05-10T09:14:16;4.78;;;4.07;;
60416;SDS011;46263;44.726;10.396;2023-05-10T09:16:43;5.28;;;4.18;;
60416;SDS011;46263;44.726;10.396;2023-05-10T09:19:09;4.00;;;3.60;;
60416;SDS011;46263;44.726;10.396;2023-05-10T09:21:35;5.82;;;4.05;;
60416;SDS011;46263;44.726;10.396;2023-05-10T09:24:07;4.97;;;4.07;;
60416;SDS011;46263;44.726;10.396;2023-05-10T09:26:34;5.35;;;3.95;;
60416;SDS011;46263;44.726;10.396;2023-05-10T09:29:01;5.80;;;4.20;;
60416;SDS011;46263;44.726;10.396;2023-05-10T09:36:50;5.60;;;4.95;;
60416;SDS011;46263;44.726;10.396;2023-05-10T09:39:16;4.65;;;4.15;;
60416;SDS011;46263;44.726;10.396;2023-05-10T09:41:42;7.53;;;5.05;;
60416;SDS011;46263;44.726;10.396;2023-05-10T09:44:09;4.90;;;3.90;;
60416;SDS011;46263;44.726;10.396;2023-05-10T09:46:37;4.88;;;4.38;;
60416;SDS011;46263;44.726;10.396;2023-05-10T09:49:02;4.68;;;4.25;;
60416;SDS011;46263;44.726;10.396;2023-05-10T09:51:28;5.22;;;4.72;;
60416;SDS011;46263;44.726;10.396;2023-05-10T09:54:16;4.32;;;3.92;;
60416;SDS011;46263;44.726;10.396;2023-05-10T09:56:42;5.03;;;4.53;;
60416;SDS011;46263;44.726;10.396;2023-05-10T09:59:09;5.18;;;3.80;;
60416;SDS011;46263;44.726;10.396;2023-05-10T10:01:36;5.07;;;4.18;;
60416;SDS011;46263;44.726;10.396;2023-05-10T10:04:02;5.53;;;4.20;;
60416;SDS011;46263;44.726;10.396;2023-05-10T10:06:36;4.53;;;3.80;;
60416;SDS011;46263;44.726;10.396;2023-05-10T10:09:08;13.95;;;10.18;;
60416;SDS011;46263;44.726;10.396;2023-05-10T10:11:34;7.05;;;4.72;;
60416;SDS011;46263;44.726;10.396;2023-05-10T10:14:01;5.25;;;4.03;;
60416;SDS011;46263;44.726;10.396;2023-05-10T10:16:28;7.38;;;4.25;;
60416;SDS011;46263;44.726;10.396;2023-05-10T10:18:55;6.65;;;4.22;;
60416;SDS011;46263;44.726;10.396;2023-05-10T10:21:21;4.90;;;4.05;;
60416;SDS011;46263;44.726;10.396;2023-05-10T10:23:47;4.38;;;3.92;;
60416;SDS011;46263;44.726;10.396;2023-05-10T10:26:13;4.40;;;4.00;;
60416;SDS011;46263;44.726;10.396;2023-05-10T10:28:41;5.70;;;4.05;;
60416;SDS011;46263;44.726;10.396;2023-05-10T10:31:26;6.57;;;3.50;;
60416;SDS011;46263;44.726;10.396;2023-05-10T10:34:05;4.68;;;3.85;;
60416;SDS011;46263;44.726;10.396;2023-05-10T10:36:33;4.38;;;3.97;;
60416;SDS011;46263;44.726;10.396;2023-05-10T10:39:08;4.22;;;3.28;;
60416;SDS011;46263;44.726;10.396;2023-05-10T10:41:35;3.47;;;3.15;;
60416;SDS011;46263;44.726;10.396;2023-05-10T10:44:44;4.38;;;3.65;;
60416;SDS011;46263;44.726;10.396;2023-05-10T10:47:05;5.40;;;3.90;;
60416;SDS011;46263;44.726;10.396;2023-05-10T10:57:54;5.38;;;3.28;;
60416;SDS011;46263;44.726;10.396;2023-05-10T11:03:14;4.80;;;3.33;;
60416;SDS011;46263;44.726;10.396;2023-05-10T11:05:47;4.65;;;3.30;;
60416;SDS011;46263;44.726;10.396;2023-05-10T11:08:25;4.60;;;3.13;;
60416;SDS011;46263;44.726;10.396;2023-05-10T11:13:28;3.88;;;3.40;;
60416;SDS011;46263;44.726;10.396;2023-05-10T11:15:54;4.20;;;3.25;;
60416;SDS011;46263;44.726;10.396;2023-05-10T11:20:58;3.50;;;2.90;;
60416;SDS011;46263;44.726;10.396;2023-05-10T11:26:07;3.78;;;3.35;;
60416;SDS011;46263;44.726;10.396;2023-05-10T11:28:42;3.72;;;3.13;;
60416;SDS011;46263;44.726;10.396;2023-05-10T11:31:08;4.03;;;3.30;;
60416;SDS011;46263;44.726;10.396;2023-05-10T11:33:44;3.28;;;2.97;;
60416;SDS011;46263;44.726;10.396;2023-05-10T11:36:11;3.53;;;3.20;;
60416;SDS011;46263;44.726;10.396;2023-05-10T11:38:39;3.50;;;3.20;;
60416;SDS011;46263;44.726;10.396;2023-05-10T11:41:04;4.38;;;3.50;;
60416;SDS011;46263;44.726;10.396;2023-05-10T11:43:30;5.93;;;5.05;;
60416;SDS011;46263;44.726;10.396;2023-05-10T11:45:55;3.63;;;2.90;;
60416;SDS011;46263;44.726;10.396;2023-05-10T11:48:21;4.05;;;3.42;;
60416;SDS011;46263;44.726;10.396;2023-05-10T11:50:49;5.10;;;3.30;;
60416;SDS011;46263;44.726;10.396;2023-05-10T11:53:15;3.83;;;3.45;;
60416;SDS011;46263;44.726;10.396;2023-05-10T11:55:41;3.65;;;3.35;;
60416;SDS011;46263;44.726;10.396;2023-05-10T11:58:06;3.28;;;2.97;;
60416;SDS011;46263;44.726;10.396;2023-05-10T12:00:32;3.42;;;3.10;;
60416;SDS011;46263;44.726;10.396;2023-05-10T12:02:58;5.35;;;3.05;;
60416;SDS011;46263;44.726;10.396;2023-05-10T12:05:25;3.55;;;3.22;;
60416;SDS011;46263;44.726;10.396;2023-05-10T12:07:51;3.75;;;3.42;;
60416;SDS011;46263;44.726;10.396;2023-05-10T12:10:17;4.47;;;3.70;;
60416;SDS011;46263;44.726;10.396;2023-05-10T12:12:51;4.18;;;3.88;;
60416;SDS011;46263;44.726;10.396;2023-05-10T12:15:18;3.72;;;2.90;;
60416;SDS011;46263;44.726;10.396;2023-05-10T12:17:45;4.75;;;3.45;;
60416;SDS011;46263;44.726;10.396;2023-05-10T12:20:19;3.42;;;3.05;;
60416;SDS011;46263;44.726;10.396;2023-05-10T12:22:50;3.67;;;3.35;;
60416;SDS011;46263;44.726;10.396;2023-05-10T12:25:21;4.72;;;3.10;;
60416;SDS011;46263;44.726;10.396;2023-05-10T12:27:51;3.67;;;3.38;;
60416;SDS011;46263;44.726;10.396;2023-05-10T12:30:21;3.72;;;3.40;;
60416;SDS011;46263;44.726;10.396;2023-05-10T12:32:51;4.43;;;3.03;;
60416;SDS011;46263;44.726;10.396;2023-05-10T12:35:17;3.75;;;3.40;;
60416;SDS011;46263;44.726;10.396;2023-05-10T12:37:46;5.88;;;3.65;;
60416;SDS011;46263;44.726;10.396;2023-05-10T12:40:12;3.65;;;3.00;;
60416;SDS011;46263;44.726;10.396;2023-05-10T12:42:38;3.72;;;3.22;;
60416;SDS011;46263;44.726;10.396;2023-05-10T12:45:05;3.63;;;3.30;;
60416;SDS011;46263;44.726;10.396;2023-05-10T12:47:32;4.93;;;3.40;;
60416;SDS011;46263;44.726;10.396;2023-05-10T12:49:59;3.35;;;3.00;;
60416;SDS011;46263;44.726;10.396;2023-05-10T12:52:25;3.97;;;3.50;;
60416;SDS011;46263;44.726;10.396;2023-05-10T12:54:51;11.80;;;9.80;;
60416;SDS011;46263;44.726;10.396;2023-05-10T12:57:17;22.38;;;17.50;;
60416;SDS011;46263;44.726;10.396;2023-05-10T12:59:43;3.80;;;3.50;;
60416;SDS011;46263;44.726;10.396;2023-05-10T13:02:09;3.30;;;3.00;;
60416;SDS011;46263;44.726;10.396;2023-05-10T13:04:35;4.05;;;3.45;;
60416;SDS011;46263;44.726;10.396;2023-05-10T13:07:04;3.75;;;3.13;;
60416;SDS011;46263;44.726;10.396;2023-05-10T13:09:30;3.60;;;3.25;;
60416;SDS011;46263;44.726;10.396;2023-05-10T13:11:55;3.47;;;3.17;;
60416;SDS011;46263;44.726;10.396;2023-05-10T13:14:21;3.22;;;2.88;;
60416;SDS011;46263;44.726;10.396;2023-05-10T13:16:47;2.92;;;2.60;;
60416;SDS011;46263;44.726;10.396;2023-05-10T13:19:13;3.13;;;2.88;;
60416;SDS011;46263;44.726;10.396;2023-05-10T13:21:39;2.75;;;2.47;;
60416;SDS011;46263;44.726;10.396;2023-05-10T13:24:09;3.33;;;2.88;;
60416;SDS011;46263;44.726;10.396;2023-05-10T13:26:36;3.60;;;3.20;;
60416;SDS011;46263;44.726;10.396;2023-05-10T13:29:02;4.28;;;2.78;;
60416;SDS011;46263;44.726;10.396;2023-05-10T13:31:28;4.53;;;2.63;;
60416;SDS011;46263;44.726;10.396;2023-05-10T13:33:53;2.90;;;2.40;;
60416;SDS011;46263;44.726;10.396;2023-05-10T13:36:19;2.50;;;2.30;;
60416;SDS011;46263;44.726;10.396;2023-05-10T13:38:45;2.85;;;2.53;;
60416;SDS011;46263;44.726;10.396;2023-05-10T13:41:10;2.80;;;2.60;;
60416;SDS011;46263;44.726;10.396;2023-05-10T13:43:36;3.10;;;2.47;;
60416;SDS011;46263;44.726;10.396;2023-05-10T13:46:01;2.90;;;2.70;;
60416;SDS011;46263;44.726;10.396;2023-05-10T13:48:27;4.53;;;3.10;;
60416;SDS011;46263;44.726;10.396;2023-05-10T13:50:53;3.15;;;2.70;;
60416;SDS011;46263;44.726;10.396;2023-05-10T13:53:18;3.20;;;3.00;;
60416;SDS011;46263;44.726;10.396;2023-05-10T13:55:44;2.80;;;2.60;;
60416;SDS011;46263;44.726;10.396;2023-05-10T13:58:09;3.47;;;3.00;;
60416;SDS011;46263;44.726;10.396;2023-05-10T14:00:35;4.22;;;2.90;;
60416;SDS011;46263;44.726;10.396;2023-05-10T14:03:01;2.78;;;2.58;;
60416;SDS011;46263;44.726;10.396;2023-05-10T14:05:27;3.15;;;2.85;;
60416;SDS011;46263;44.726;10.396;2023-05-10T14:07:52;5.57;;;3.83;;
60416;SDS011;46263;44.726;10.396;2023-05-10T14:10:18;4.20;;;3.15;;
60416;SDS011;46263;44.726;10.396;2023-05-10T14:12:44;3.95;;;3.55;;
60416;SDS011;46263;44.726;10.396;2023-05-10T14:15:09;2.92;;;2.72;;
60416;SDS011;46263;44.726;10.396;2023-05-10T14:17:36;3.78;;;2.65;;
60416;SDS011;46263;44.726;10.396;2023-05-10T14:20:02;2.55;;;2.35;;
60416;SDS011;46263;44.726;10.396;2023-05-10T14:22:28;4.63;;;4.10;;
60416;SDS011;46263;44.726;10.396;2023-05-10T14:24:54;4.78;;;4.15;;
60416;SDS011;46263;44.726;10.396;2023-05-10T14:27:20;3.30;;;3.00;;
60416;SDS011;46263;44.726;10.396;2023-05-10T14:29:46;6.22;;;2.63;;
60416;SDS011;46263;44.726;10.396;2023-05-10T14:32:12;3.35;;;2.90;;
60416;SDS011;46263;44.726;10.396;2023-05-10T14:34:37;2.67;;;2.47;;
60416;SDS011;46263;44.726;10.396;2023-05-10T14:37:03;2.83;;;2.50;;
60416;SDS011;46263;44.726;10.396;2023-05-10T14:39:29;2.67;;;2.47;;
60416;SDS011;46263;44.726;10.396;2023-05-10T14:41:55;3.92;;;2.65;;
60416;SDS011;46263;44.726;10.396;2023-05-10T14:44:20;3.00;;;2.75;;
60416;SDS011;46263;44.726;10.396;2023-05-10T14:46:46;2.85;;;2.65;;
60416;SDS011;46263;44.726;10.396;2023-05-10T14:49:12;2.47;;;2.28;;
60416;SDS011;46263;44.726;10.396;2023-05-10T14:51:37;3.03;;;2.78;;
60416;SDS011;46263;44.726;10.396;2023-05-10T14:54:03;2.92;;;2.63;;
60416;SDS011;46263;44.726;10.396;2023-05-10T14:56:28;3.55;;;2.85;;
60416;SDS011;46263;44.726;10.396;2023-05-10T14:58:54;3.05;;;2.85;;
60416;SDS011;46263;44.726;10.396;2023-05-10T15:01:19;3.00;;;2.80;;
60416;SDS011;46263;44.726;10.396;2023-05-10T15:03:45;3.78;;;3.10;;
60416;SDS011;46263;44.726;10.396;2023-05-10T15:06:10;2.60;;;2.40;;
60416;SDS011;46263;44.726;10.396;2023-05-10T15:08:36;3.35;;;2.92;;
60416;SDS011;46263;44.726;10.396;2023-05-10T15:11:01;3.20;;;2.90;;
60416;SDS011;46263;44.726;10.396;2023-05-10T15:13:28;5.78;;;3.13;;
60416;SDS011;46263;44.726;10.396;2023-05-10T15:15:53;4.50;;;3.58;;
60416;SDS011;46263;44.726;10.396;2023-05-10T15:18:18;5.28;;;3.85;;
60416;SDS011;46263;44.726;10.396;2023-05-10T15:20:44;5.13;;;3.92;;